sensor_id;sensor_type;location;lat;lon;timestamp;P1;durP1;ratioP1;P2;durP2;ratioP2
3307;SDS011;1666;48.898;9.182;2023-08-01T00:02:11;5.53;;;3.38;;
3307;SDS011;1666;48.898;9.182;2023-08-01T00:04:41;6.30;;;3.20;;
3307;SDS011;1666;48.898;9.182;2023-08-01T00:07:13;5.20;;;3.15;;
3307;SDS011;1666;48.898;9.182;2023-08-01T00:09:43;6.15;;;3.47;;
3307;SDS011;1666;48.898;9.182;2023-08-01T00:12:14;6.20;;;3.08;;
3307;SDS011;1666;48.898;9.182;2023-08-01T00:14:44;6.07;;;3.35;;
3307;SDS011;1666;48.898;9.182;2023-08-01T00:17:14;3.90;;;3.00;;
3307;SDS011;1666;48.898;9.182;2023-08-01T00:19:44;7.50;;;3.53;;
3307;SDS011;1666;48.898;9.182;2023-08-01T00:22:16;7.00;;;3.30;;
3307;SDS011;1666;48.898;9.182;2023-08-01T00:24:46;6.20;;;3.35;;
3307;SDS011;1666;48.898;9.182;2023-08-01T00:27:16;6.30;;;3.28;;
3307;SDS011;1666;48.898;9.182;2023-08-01T00:29:46;5.38;;;3.30;;
3307;SDS011;1666;48.898;9.182;2023-08-01T00:32:16;5.50;;;3.70;;
3307;SDS011;1666;48.898;9.182;2023-08-01T00:34:46;4.32;;;3.08;;
3307;SDS011;1666;48.898;9.182;2023-08-01T00:37:18;5.88;;;3.47;;
3307;SDS011;1666;48.898;9.182;2023-08-01T00:39:48;11.30;;;3.63;;
3307;SDS011;1666;48.898;9.182;2023-08-01T00:42:18;5.95;;;3.67;;
3307;SDS011;1666;48.898;9.182;2023-08-01T00:44:48;8.18;;;3.83;;
3307;SDS011;1666;48.898;9.182;2023-08-01T00:47:20;7.68;;;3.65;;
3307;SDS011;1666;48.898;9.182;2023-08-01T00:49:50;7.03;;;4.05;;
3307;SDS011;1666;48.898;9.182;2023-08-01T00:52:23;7.00;;;4.05;;
3307;SDS011;1666;48.898;9.182;2023-08-01T00:54:53;7.30;;;4.22;;
3307;SDS011;1666;48.898;9.182;2023-08-01T00:57:24;8.18;;;4.13;;
3307;SDS011;1666;48.898;9.182;2023-08-01T00:59:54;8.02;;;4.25;;
3307;SDS011;1666;48.898;9.182;2023-08-01T01:02:24;10.18;;;4.80;;
3307;SDS011;1666;48.898;9.182;2023-08-01T01:04:55;8.30;;;4.47;;
3307;SDS011;1666;48.898;9.182;2023-08-01T01:07:27;6.05;;;3.75;;
3307;SDS011;1666;48.898;9.182;2023-08-01T01:09:58;8.52;;;4.38;;
3307;SDS011;1666;48.898;9.182;2023-08-01T01:12:28;6.82;;;4.03;;
3307;SDS011;1666;48.898;9.182;2023-08-01T01:14:58;6.68;;;4.30;;
3307;SDS011;1666;48.898;9.182;2023-08-01T01:17:29;10.15;;;3.97;;
3307;SDS011;1666;48.898;9.182;2023-08-01T01:19:59;5.90;;;3.83;;
3307;SDS011;1666;48.898;9.182;2023-08-01T01:22:31;5.72;;;3.70;;
3307;SDS011;1666;48.898;9.182;2023-08-01T01:25:03;6.80;;;3.65;;
3307;SDS011;1666;48.898;9.182;2023-08-01T01:27:35;6.43;;;3.78;;
3307;SDS011;1666;48.898;9.182;2023-08-01T01:30:07;9.00;;;3.65;;
3307;SDS011;1666;48.898;9.182;2023-08-01T01:32:37;5.75;;;3.85;;
3307;SDS011;1666;48.898;9.182;2023-08-01T01:35:08;8.90;;;4.00;;
3307;SDS011;1666;48.898;9.182;2023-08-01T01:37:42;6.20;;;3.95;;
3307;SDS011;1666;48.898;9.182;2023-08-01T01:40:11;6.50;;;4.10;;
3307;SDS011;1666;48.898;9.182;2023-08-01T01:42:41;5.88;;;3.90;;
3307;SDS011;1666;48.898;9.182;2023-08-01T01:45:11;4.75;;;3.60;;
3307;SDS011;1666;48.898;9.182;2023-08-01T01:47:41;7.63;;;4.47;;
3307;SDS011;1666;48.898;9.182;2023-08-01T01:50:11;8.10;;;4.32;;
3307;SDS011;1666;48.898;9.182;2023-08-01T01:52:44;5.28;;;3.38;;
3307;SDS011;1666;48.898;9.182;2023-08-01T01:55:14;6.43;;;3.65;;
3307;SDS011;1666;48.898;9.182;2023-08-01T01:57:44;5.80;;;4.05;;
3307;SDS011;1666;48.898;9.182;2023-08-01T02:00:15;6.75;;;4.22;;
3307;SDS011;1666;48.898;9.182;2023-08-01T02:02:44;5.15;;;4.05;;
3307;SDS011;1666;48.898;9.182;2023-08-01T02:05:14;7.93;;;4.50;;
3307;SDS011;1666;48.898;9.182;2023-08-01T02:07:47;7.75;;;4.40;;
3307;SDS011;1666;48.898;9.182;2023-08-01T02:10:17;5.70;;;3.60;;
3307;SDS011;1666;48.898;9.182;2023-08-01T02:12:47;5.72;;;4.05;;
3307;SDS011;1666;48.898;9.182;2023-08-01T02:15:17;6.93;;;4.20;;
3307;SDS011;1666;48.898;9.182;2023-08-01T02:17:47;6.93;;;4.57;;
3307;SDS011;1666;48.898;9.182;2023-08-01T02:20:17;7.25;;;4.40;;
3307;SDS011;1666;48.898;9.182;2023-08-01T02:22:49;7.63;;;4.35;;
3307;SDS011;1666;48.898;9.182;2023-08-01T02:25:19;8.18;;;5.15;;
3307;SDS011;1666;48.898;9.182;2023-08-01T02:27:49;8.90;;;4.50;;
3307;SDS011;1666;48.898;9.182;2023-08-01T02:30:19;7.47;;;4.50;;
3307;SDS011;1666;48.898;9.182;2023-08-01T02:32:49;6.95;;;4.90;;
3307;SDS011;1666;48.898;9.182;2023-08-01T02:35:19;9.50;;;5.22;;
3307;SDS011;1666;48.898;9.182;2023-08-01T02:37:51;9.80;;;5.65;;
3307;SDS011;1666;48.898;9.182;2023-08-01T02:40:21;8.80;;;4.78;;
3307;SDS011;1666;48.898;9.182;2023-08-01T02:42:52;9.07;;;5.00;;
3307;SDS011;1666;48.898;9.182;2023-08-01T02:45:22;9.25;;;4.78;;
3307;SDS011;1666;48.898;9.182;2023-08-01T02:47:52;6.57;;;4.30;;
3307;SDS011;1666;48.898;9.182;2023-08-01T02:50:23;6.18;;;4.15;;
3307;SDS011;1666;48.898;9.182;2023-08-01T02:52:56;8.75;;;4.75;;
3307;SDS011;1666;48.898;9.182;2023-08-01T02:55:26;7.10;;;4.10;;
3307;SDS011;1666;48.898;9.182;2023-08-01T02:57:56;8.35;;;4.13;;
3307;SDS011;1666;48.898;9.182;2023-08-01T03:00:26;8.25;;;5.00;;
3307;SDS011;1666;48.898;9.182;2023-08-01T03:02:58;10.25;;;5.07;;
3307;SDS011;1666;48.898;9.182;2023-08-01T03:05:29;7.68;;;4.70;;
3307;SDS011;1666;48.898;9.182;2023-08-01T03:08:02;9.60;;;5.25;;
3307;SDS011;1666;48.898;9.182;2023-08-01T03:10:32;9.10;;;5.30;;
3307;SDS011;1666;48.898;9.182;2023-08-01T03:13:03;9.70;;;4.72;;
3307;SDS011;1666;48.898;9.182;2023-08-01T03:15:33;8.18;;;5.22;;
3307;SDS011;1666;48.898;9.182;2023-08-01T03:18:03;7.53;;;4.35;;
3307;SDS011;1666;48.898;9.182;2023-08-01T03:20:33;6.95;;;4.70;;
3307;SDS011;1666;48.898;9.182;2023-08-01T03:23:06;7.72;;;4.80;;
3307;SDS011;1666;48.898;9.182;2023-08-01T03:25:36;7.38;;;4.70;;
3307;SDS011;1666;48.898;9.182;2023-08-01T03:28:06;6.95;;;4.72;;
3307;SDS011;1666;48.898;9.182;2023-08-01T03:30:36;7.18;;;4.70;;
3307;SDS011;1666;48.898;9.182;2023-08-01T03:33:06;6.55;;;4.65;;
3307;SDS011;1666;48.898;9.182;2023-08-01T03:35:35;8.02;;;4.53;;
3307;SDS011;1666;48.898;9.182;2023-08-01T03:38:08;9.45;;;4.43;;
3307;SDS011;1666;48.898;9.182;2023-08-01T03:40:38;9.82;;;5.05;;
3307;SDS011;1666;48.898;9.182;2023-08-01T03:43:08;7.10;;;5.22;;
3307;SDS011;1666;48.898;9.182;2023-08-01T03:45:38;6.00;;;4.43;;
3307;SDS011;1666;48.898;9.182;2023-08-01T03:48:08;6.90;;;4.43;;
3307;SDS011;1666;48.898;9.182;2023-08-01T03:50:38;8.32;;;4.50;;
3307;SDS011;1666;48.898;9.182;2023-08-01T03:53:11;9.10;;;5.00;;
3307;SDS011;1666;48.898;9.182;2023-08-01T03:55:43;8.02;;;4.68;;
3307;SDS011;1666;48.898;9.182;2023-08-01T03:58:13;6.93;;;4.13;;
3307;SDS011;1666;48.898;9.182;2023-08-01T04:00:43;7.15;;;4.15;;
3307;SDS011;1666;48.898;9.182;2023-08-01T04:03:13;9.82;;;4.00;;
3307;SDS011;1666;48.898;9.182;2023-08-01T04:05:43;6.88;;;4.00;;
3307;SDS011;1666;48.898;9.182;2023-08-01T04:08:16;4.55;;;3.45;;
3307;SDS011;1666;48.898;9.182;2023-08-01T04:10:46;6.65;;;3.47;;
3307;SDS011;1666;48.898;9.182;2023-08-01T04:13:16;5.80;;;3.50;;
3307;SDS011;1666;48.898;9.182;2023-08-01T04:15:46;6.35;;;3.20;;
3307;SDS011;1666;48.898;9.182;2023-08-01T04:18:17;6.25;;;2.92;;
3307;SDS011;1666;48.898;9.182;2023-08-01T04:20:47;5.68;;;3.17;;
3307;SDS011;1666;48.898;9.182;2023-08-01T04:23:19;7.05;;;3.30;;
3307;SDS011;1666;48.898;9.182;2023-08-01T04:25:49;5.40;;;2.70;;
3307;SDS011;1666;48.898;9.182;2023-08-01T04:28:20;5.30;;;3.10;;
3307;SDS011;1666;48.898;9.182;2023-08-01T04:30:50;8.85;;;2.97;;
3307;SDS011;1666;48.898;9.182;2023-08-01T04:33:20;4.25;;;3.15;;
3307;SDS011;1666;48.898;9.182;2023-08-01T04:35:50;5.45;;;3.05;;
3307;SDS011;1666;48.898;9.182;2023-08-01T04:38:22;4.68;;;2.90;;
3307;SDS011;1666;48.898;9.182;2023-08-01T04:40:52;6.97;;;2.92;;
3307;SDS011;1666;48.898;9.182;2023-08-01T04:43:22;6.07;;;3.28;;
3307;SDS011;1666;48.898;9.182;2023-08-01T04:45:52;5.80;;;2.80;;
3307;SDS011;1666;48.898;9.182;2023-08-01T04:48:22;4.45;;;2.78;;
3307;SDS011;1666;48.898;9.182;2023-08-01T04:50:52;5.15;;;3.35;;
3307;SDS011;1666;48.898;9.182;2023-08-01T04:53:25;5.18;;;2.80;;
3307;SDS011;1666;48.898;9.182;2023-08-01T04:55:54;5.90;;;3.55;;
3307;SDS011;1666;48.898;9.182;2023-08-01T04:58:24;6.13;;;3.30;;
3307;SDS011;1666;48.898;9.182;2023-08-01T05:00:54;4.55;;;3.00;;
3307;SDS011;1666;48.898;9.182;2023-08-01T05:03:24;5.60;;;3.00;;
3307;SDS011;1666;48.898;9.182;2023-08-01T05:05:54;5.85;;;3.03;;
3307;SDS011;1666;48.898;9.182;2023-08-01T05:08:27;4.63;;;2.70;;
3307;SDS011;1666;48.898;9.182;2023-08-01T05:10:57;4.97;;;3.08;;
3307;SDS011;1666;48.898;9.182;2023-08-01T05:13:27;6.07;;;2.70;;
3307;SDS011;1666;48.898;9.182;2023-08-01T05:15:57;4.38;;;2.92;;
3307;SDS011;1666;48.898;9.182;2023-08-01T05:18:27;7.13;;;2.97;;
3307;SDS011;1666;48.898;9.182;2023-08-01T05:20:57;3.45;;;2.63;;
3307;SDS011;1666;48.898;9.182;2023-08-01T05:23:30;5.30;;;3.60;;
3307;SDS011;1666;48.898;9.182;2023-08-01T05:26:00;4.53;;;2.60;;
3307;SDS011;1666;48.898;9.182;2023-08-01T05:28:30;6.40;;;2.60;;
3307;SDS011;1666;48.898;9.182;2023-08-01T05:31:00;6.47;;;2.63;;
3307;SDS011;1666;48.898;9.182;2023-08-01T05:33:30;6.57;;;2.75;;
3307;SDS011;1666;48.898;9.182;2023-08-01T05:36:00;4.15;;;2.60;;
3307;SDS011;1666;48.898;9.182;2023-08-01T05:38:32;4.18;;;2.58;;
3307;SDS011;1666;48.898;9.182;2023-08-01T05:41:02;4.50;;;2.58;;
3307;SDS011;1666;48.898;9.182;2023-08-01T05:43:32;5.90;;;3.05;;
3307;SDS011;1666;48.898;9.182;2023-08-01T05:46:02;4.72;;;2.28;;
3307;SDS011;1666;48.898;9.182;2023-08-01T05:48:32;10.63;;;3.05;;
3307;SDS011;1666;48.898;9.182;2023-08-01T05:51:02;5.32;;;2.75;;
3307;SDS011;1666;48.898;9.182;2023-08-01T05:53:35;5.35;;;3.28;;
3307;SDS011;1666;48.898;9.182;2023-08-01T05:56:05;5.75;;;2.63;;
3307;SDS011;1666;48.898;9.182;2023-08-01T05:58:35;5.47;;;3.15;;
3307;SDS011;1666;48.898;9.182;2023-08-01T06:01:05;4.90;;;3.05;;
3307;SDS011;1666;48.898;9.182;2023-08-01T06:03:35;3.92;;;2.65;;
3307;SDS011;1666;48.898;9.182;2023-08-01T06:06:05;5.43;;;2.90;;
3307;SDS011;1666;48.898;9.182;2023-08-01T06:08:38;9.75;;;2.95;;
3307;SDS011;1666;48.898;9.182;2023-08-01T06:11:08;4.38;;;2.55;;
3307;SDS011;1666;48.898;9.182;2023-08-01T06:13:38;3.53;;;2.45;;
3307;SDS011;1666;48.898;9.182;2023-08-01T06:16:08;5.55;;;2.70;;
3307;SDS011;1666;48.898;9.182;2023-08-01T06:18:38;7.68;;;3.35;;
3307;SDS011;1666;48.898;9.182;2023-08-01T06:21:07;4.80;;;3.17;;
3307;SDS011;1666;48.898;9.182;2023-08-01T06:23:43;5.07;;;2.72;;
3307;SDS011;1666;48.898;9.182;2023-08-01T06:26:13;5.07;;;3.05;;
3307;SDS011;1666;48.898;9.182;2023-08-01T06:28:43;4.22;;;3.03;;
3307;SDS011;1666;48.898;9.182;2023-08-01T06:31:13;4.28;;;3.17;;
3307;SDS011;1666;48.898;9.182;2023-08-01T06:33:43;6.45;;;3.65;;
3307;SDS011;1666;48.898;9.182;2023-08-01T06:36:13;6.47;;;4.60;;
3307;SDS011;1666;48.898;9.182;2023-08-01T06:38:46;5.70;;;4.20;;
3307;SDS011;1666;48.898;9.182;2023-08-01T06:41:16;8.43;;;4.07;;
3307;SDS011;1666;48.898;9.182;2023-08-01T06:43:46;5.25;;;3.78;;
3307;SDS011;1666;48.898;9.182;2023-08-01T06:46:16;6.90;;;4.40;;
3307;SDS011;1666;48.898;9.182;2023-08-01T06:48:46;4.88;;;3.75;;
3307;SDS011;1666;48.898;9.182;2023-08-01T06:51:16;9.43;;;5.00;;
3307;SDS011;1666;48.898;9.182;2023-08-01T06:53:49;8.85;;;4.50;;
3307;SDS011;1666;48.898;9.182;2023-08-01T06:56:18;9.65;;;5.32;;
3307;SDS011;1666;48.898;9.182;2023-08-01T06:58:48;9.85;;;4.78;;
3307;SDS011;1666;48.898;9.182;2023-08-01T07:01:19;8.45;;;4.63;;
3307;SDS011;1666;48.898;9.182;2023-08-01T07:03:49;7.00;;;5.00;;
3307;SDS011;1666;48.898;9.182;2023-08-01T07:06:19;8.30;;;5.47;;
3307;SDS011;1666;48.898;9.182;2023-08-01T07:08:52;9.32;;;5.22;;
3307;SDS011;1666;48.898;9.182;2023-08-01T07:13:53;9.52;;;5.43;;
3307;SDS011;1666;48.898;9.182;2023-08-01T07:16:23;8.73;;;5.95;;
3307;SDS011;1666;48.898;9.182;2023-08-01T07:18:55;8.15;;;5.00;;
3307;SDS011;1666;48.898;9.182;2023-08-01T07:21:27;9.55;;;6.10;;
3307;SDS011;1666;48.898;9.182;2023-08-01T07:24:00;9.30;;;5.22;;
3307;SDS011;1666;48.898;9.182;2023-08-01T07:26:30;9.38;;;5.75;;
3307;SDS011;1666;48.898;9.182;2023-08-01T07:29:00;10.15;;;6.38;;
3307;SDS011;1666;48.898;9.182;2023-08-01T07:31:30;7.63;;;5.30;;
3307;SDS011;1666;48.898;9.182;2023-08-01T07:34:00;11.38;;;5.97;;
3307;SDS011;1666;48.898;9.182;2023-08-01T07:36:30;8.77;;;5.45;;
3307;SDS011;1666;48.898;9.182;2023-08-01T07:39:02;9.65;;;5.68;;
3307;SDS011;1666;48.898;9.182;2023-08-01T07:41:32;11.43;;;5.82;;
3307;SDS011;1666;48.898;9.182;2023-08-01T07:44:02;7.80;;;5.20;;
3307;SDS011;1666;48.898;9.182;2023-08-01T07:46:32;7.45;;;5.18;;
3307;SDS011;1666;48.898;9.182;2023-08-01T07:49:03;10.38;;;5.55;;
3307;SDS011;1666;48.898;9.182;2023-08-01T07:51:32;9.63;;;4.70;;
3307;SDS011;1666;48.898;9.182;2023-08-01T07:54:05;9.40;;;4.85;;
3307;SDS011;1666;48.898;9.182;2023-08-01T07:56:35;11.48;;;4.55;;
3307;SDS011;1666;48.898;9.182;2023-08-01T07:59:06;6.07;;;4.00;;
3307;SDS011;1666;48.898;9.182;2023-08-01T08:01:36;6.57;;;4.15;;
3307;SDS011;1666;48.898;9.182;2023-08-01T08:04:06;9.50;;;4.60;;
3307;SDS011;1666;48.898;9.182;2023-08-01T08:06:36;5.30;;;3.63;;
3307;SDS011;1666;48.898;9.182;2023-08-01T08:09:09;5.85;;;3.83;;
3307;SDS011;1666;48.898;9.182;2023-08-01T08:11:39;5.70;;;3.55;;
3307;SDS011;1666;48.898;9.182;2023-08-01T08:14:09;4.60;;;3.22;;
3307;SDS011;1666;48.898;9.182;2023-08-01T08:16:41;6.10;;;3.03;;
3307;SDS011;1666;48.898;9.182;2023-08-01T08:19:11;4.13;;;2.72;;
3307;SDS011;1666;48.898;9.182;2023-08-01T08:21:41;5.95;;;2.80;;
3307;SDS011;1666;48.898;9.182;2023-08-01T08:24:14;4.03;;;2.47;;
3307;SDS011;1666;48.898;9.182;2023-08-01T08:26:43;3.75;;;2.08;;
3307;SDS011;1666;48.898;9.182;2023-08-01T08:29:14;4.50;;;2.10;;
3307;SDS011;1666;48.898;9.182;2023-08-01T08:31:44;3.33;;;2.33;;
3307;SDS011;1666;48.898;9.182;2023-08-01T08:34:14;5.65;;;3.20;;
3307;SDS011;1666;48.898;9.182;2023-08-01T08:36:44;4.05;;;2.33;;
3307;SDS011;1666;48.898;9.182;2023-08-01T08:39:16;5.80;;;2.38;;
3307;SDS011;1666;48.898;9.182;2023-08-01T08:41:47;3.83;;;2.63;;
3307;SDS011;1666;48.898;9.182;2023-08-01T08:44:19;2.63;;;1.90;;
3307;SDS011;1666;48.898;9.182;2023-08-01T08:46:51;3.25;;;2.00;;
3307;SDS011;1666;48.898;9.182;2023-08-01T08:49:22;2.53;;;1.80;;
3307;SDS011;1666;48.898;9.182;2023-08-01T08:51:55;4.35;;;1.75;;
3307;SDS011;1666;48.898;9.182;2023-08-01T08:54:28;2.25;;;1.80;;
3307;SDS011;1666;48.898;9.182;2023-08-01T08:56:59;2.53;;;1.60;;
3307;SDS011;1666;48.898;9.182;2023-08-01T08:59:30;2.85;;;1.80;;
3307;SDS011;1666;48.898;9.182;2023-08-01T09:02:01;2.08;;;1.30;;
3307;SDS011;1666;48.898;9.182;2023-08-01T09:04:31;1.83;;;1.35;;
3307;SDS011;1666;48.898;9.182;2023-08-01T09:07:02;3.53;;;1.77;;
3307;SDS011;1666;48.898;9.182;2023-08-01T09:09:39;4.22;;;1.98;;
3307;SDS011;1666;48.898;9.182;2023-08-01T09:12:09;1.98;;;1.58;;
3307;SDS011;1666;48.898;9.182;2023-08-01T09:14:40;2.47;;;1.70;;
3307;SDS011;1666;48.898;9.182;2023-08-01T09:17:10;2.08;;;1.33;;
3307;SDS011;1666;48.898;9.182;2023-08-01T09:19:42;2.80;;;1.60;;
3307;SDS011;1666;48.898;9.182;2023-08-01T09:22:13;1.55;;;1.38;;
3307;SDS011;1666;48.898;9.182;2023-08-01T09:24:52;2.85;;;1.50;;
3307;SDS011;1666;48.898;9.182;2023-08-01T09:27:23;3.60;;;1.67;;
3307;SDS011;1666;48.898;9.182;2023-08-01T09:30:05;2.63;;;1.48;;
3307;SDS011;1666;48.898;9.182;2023-08-01T09:32:37;1.92;;;1.23;;
3307;SDS011;1666;48.898;9.182;2023-08-01T09:35:07;1.90;;;1.38;;
3307;SDS011;1666;48.898;9.182;2023-08-01T09:37:38;2.45;;;1.20;;
3307;SDS011;1666;48.898;9.182;2023-08-01T09:40:11;1.65;;;0.98;;
3307;SDS011;1666;48.898;9.182;2023-08-01T09:42:43;2.35;;;1.25;;
3307;SDS011;1666;48.898;9.182;2023-08-01T09:45:14;3.08;;;1.20;;
3307;SDS011;1666;48.898;9.182;2023-08-01T09:47:48;2.75;;;1.08;;
3307;SDS011;1666;48.898;9.182;2023-08-01T09:50:19;1.58;;;1.20;;
3307;SDS011;1666;48.898;9.182;2023-08-01T09:52:50;3.30;;;1.33;;
3307;SDS011;1666;48.898;9.182;2023-08-01T09:55:25;1.80;;;1.20;;
3307;SDS011;1666;48.898;9.182;2023-08-01T09:58:00;2.30;;;1.23;;
3307;SDS011;1666;48.898;9.182;2023-08-01T10:00:33;4.43;;;1.17;;
3307;SDS011;1666;48.898;9.182;2023-08-01T10:03:06;2.35;;;1.30;;
3307;SDS011;1666;48.898;9.182;2023-08-01T10:05:37;2.72;;;1.75;;
3307;SDS011;1666;48.898;9.182;2023-08-01T10:08:09;3.75;;;2.83;;
3307;SDS011;1666;48.898;9.182;2023-08-01T10:10:43;3.00;;;1.58;;
3307;SDS011;1666;48.898;9.182;2023-08-01T10:13:13;3.30;;;1.13;;
3307;SDS011;1666;48.898;9.182;2023-08-01T10:15:43;2.10;;;1.20;;
3307;SDS011;1666;48.898;9.182;2023-08-01T10:18:14;1.77;;;1.10;;
3307;SDS011;1666;48.898;9.182;2023-08-01T10:20:45;1.40;;;0.80;;
3307;SDS011;1666;48.898;9.182;2023-08-01T10:23:17;1.25;;;0.90;;
3307;SDS011;1666;48.898;9.182;2023-08-01T10:25:50;2.13;;;0.70;;
3307;SDS011;1666;48.898;9.182;2023-08-01T10:28:30;1.15;;;0.57;;
3307;SDS011;1666;48.898;9.182;2023-08-01T10:31:07;1.20;;;0.50;;
3307;SDS011;1666;48.898;9.182;2023-08-01T10:33:39;0.98;;;0.50;;
3307;SDS011;1666;48.898;9.182;2023-08-01T10:36:13;0.93;;;0.65;;
3307;SDS011;1666;48.898;9.182;2023-08-01T10:38:47;1.10;;;0.60;;
3307;SDS011;1666;48.898;9.182;2023-08-01T10:41:22;0.90;;;0.55;;
3307;SDS011;1666;48.898;9.182;2023-08-01T10:44:04;2.05;;;0.50;;
3307;SDS011;1666;48.898;9.182;2023-08-01T10:46:45;1.10;;;0.60;;
3307;SDS011;1666;48.898;9.182;2023-08-01T10:49:15;0.80;;;0.60;;
3307;SDS011;1666;48.898;9.182;2023-08-01T10:51:48;1.15;;;0.95;;
3307;SDS011;1666;48.898;9.182;2023-08-01T10:54:18;1.73;;;0.55;;
3307;SDS011;1666;48.898;9.182;2023-08-01T10:56:53;1.10;;;0.60;;
3307;SDS011;1666;48.898;9.182;2023-08-01T10:59:24;2.85;;;0.68;;
3307;SDS011;1666;48.898;9.182;2023-08-01T11:01:58;4.25;;;0.80;;
3307;SDS011;1666;48.898;9.182;2023-08-01T11:04:28;0.90;;;0.57;;
3307;SDS011;1666;48.898;9.182;2023-08-01T11:06:58;3.63;;;0.63;;
3307;SDS011;1666;48.898;9.182;2023-08-01T11:09:28;1.10;;;0.60;;
3307;SDS011;1666;48.898;9.182;2023-08-01T11:12:00;2.75;;;0.82;;
3307;SDS011;1666;48.898;9.182;2023-08-01T11:14:31;1.50;;;0.90;;
3307;SDS011;1666;48.898;9.182;2023-08-01T11:17:00;1.55;;;0.80;;
3307;SDS011;1666;48.898;9.182;2023-08-01T11:19:31;3.30;;;1.10;;
3307;SDS011;1666;48.898;9.182;2023-08-01T11:22:08;1.98;;;0.80;;
3307;SDS011;1666;48.898;9.182;2023-08-01T11:24:39;1.67;;;0.90;;
3307;SDS011;1666;48.898;9.182;2023-08-01T11:27:21;1.55;;;0.85;;
3307;SDS011;1666;48.898;9.182;2023-08-01T11:29:51;2.92;;;1.27;;
3307;SDS011;1666;48.898;9.182;2023-08-01T11:32:21;1.17;;;0.80;;
3307;SDS011;1666;48.898;9.182;2023-08-01T11:35:01;1.48;;;0.90;;
3307;SDS011;1666;48.898;9.182;2023-08-01T11:37:32;1.67;;;0.90;;
3307;SDS011;1666;48.898;9.182;2023-08-01T11:40:03;1.00;;;0.90;;
3307;SDS011;1666;48.898;9.182;2023-08-01T11:42:38;2.22;;;1.00;;
3307;SDS011;1666;48.898;9.182;2023-08-01T11:45:09;1.92;;;0.90;;
3307;SDS011;1666;48.898;9.182;2023-08-01T11:47:44;4.57;;;1.20;;
3307;SDS011;1666;48.898;9.182;2023-08-01T11:50:20;1.30;;;0.88;;
3307;SDS011;1666;48.898;9.182;2023-08-01T11:52:51;1.98;;;1.02;;
3307;SDS011;1666;48.898;9.182;2023-08-01T11:55:22;4.10;;;1.10;;
3307;SDS011;1666;48.898;9.182;2023-08-01T11:57:57;2.20;;;1.00;;
3307;SDS011;1666;48.898;9.182;2023-08-01T12:00:28;3.25;;;0.88;;
3307;SDS011;1666;48.898;9.182;2023-08-01T12:03:05;2.15;;;0.80;;
3307;SDS011;1666;48.898;9.182;2023-08-01T12:05:39;5.55;;;1.27;;
3307;SDS011;1666;48.898;9.182;2023-08-01T12:08:12;3.20;;;0.80;;
3307;SDS011;1666;48.898;9.182;2023-08-01T12:10:44;3.38;;;1.63;;
3307;SDS011;1666;48.898;9.182;2023-08-01T12:13:24;2.22;;;1.00;;
3307;SDS011;1666;48.898;9.182;2023-08-01T12:15:55;2.42;;;1.13;;
3307;SDS011;1666;48.898;9.182;2023-08-01T12:18:26;1.42;;;0.90;;
3307;SDS011;1666;48.898;9.182;2023-08-01T12:21:01;2.22;;;1.10;;
3307;SDS011;1666;48.898;9.182;2023-08-01T12:23:32;2.03;;;0.82;;
3307;SDS011;1666;48.898;9.182;2023-08-01T12:26:02;1.58;;;0.90;;
3307;SDS011;1666;48.898;9.182;2023-08-01T12:28:34;2.47;;;0.90;;
3307;SDS011;1666;48.898;9.182;2023-08-01T12:31:04;2.08;;;1.10;;
3307;SDS011;1666;48.898;9.182;2023-08-01T12:33:34;1.98;;;0.90;;
3307;SDS011;1666;48.898;9.182;2023-08-01T12:36:04;2.80;;;1.15;;
3307;SDS011;1666;48.898;9.182;2023-08-01T12:38:34;2.03;;;0.90;;
3307;SDS011;1666;48.898;9.182;2023-08-01T12:41:04;3.40;;;1.30;;
3307;SDS011;1666;48.898;9.182;2023-08-01T12:43:37;4.53;;;0.90;;
3307;SDS011;1666;48.898;9.182;2023-08-01T12:46:07;3.90;;;1.50;;
3307;SDS011;1666;48.898;9.182;2023-08-01T12:48:37;3.33;;;1.15;;
3307;SDS011;1666;48.898;9.182;2023-08-01T12:51:07;1.80;;;0.95;;
3307;SDS011;1666;48.898;9.182;2023-08-01T12:53:37;1.40;;;0.80;;
3307;SDS011;1666;48.898;9.182;2023-08-01T12:56:09;2.05;;;0.93;;
3307;SDS011;1666;48.898;9.182;2023-08-01T12:58:42;2.20;;;0.98;;
3307;SDS011;1666;48.898;9.182;2023-08-01T13:01:11;2.38;;;1.40;;
3307;SDS011;1666;48.898;9.182;2023-08-01T13:03:41;2.80;;;1.20;;
3307;SDS011;1666;48.898;9.182;2023-08-01T13:06:11;1.85;;;1.08;;
3307;SDS011;1666;48.898;9.182;2023-08-01T13:08:42;2.67;;;1.05;;
3307;SDS011;1666;48.898;9.182;2023-08-01T13:11:12;2.45;;;1.10;;
3307;SDS011;1666;48.898;9.182;2023-08-01T13:13:46;1.45;;;0.85;;
3307;SDS011;1666;48.898;9.182;2023-08-01T13:16:16;6.13;;;1.33;;
3307;SDS011;1666;48.898;9.182;2023-08-01T13:18:45;1.98;;;1.27;;
3307;SDS011;1666;48.898;9.182;2023-08-01T13:21:16;2.80;;;1.42;;
3307;SDS011;1666;48.898;9.182;2023-08-01T13:23:46;2.47;;;1.25;;
3307;SDS011;1666;48.898;9.182;2023-08-01T13:26:15;1.10;;;0.90;;
3307;SDS011;1666;48.898;9.182;2023-08-01T13:28:48;2.97;;;1.30;;
3307;SDS011;1666;48.898;9.182;2023-08-01T13:31:18;2.92;;;1.20;;
3307;SDS011;1666;48.898;9.182;2023-08-01T13:33:48;2.25;;;1.10;;
3307;SDS011;1666;48.898;9.182;2023-08-01T13:36:18;2.47;;;1.10;;
3307;SDS011;1666;48.898;9.182;2023-08-01T13:38:48;3.03;;;1.20;;
3307;SDS011;1666;48.898;9.182;2023-08-01T13:41:18;2.33;;;0.90;;
3307;SDS011;1666;48.898;9.182;2023-08-01T13:43:50;1.80;;;1.15;;
3307;SDS011;1666;48.898;9.182;2023-08-01T13:46:20;2.25;;;1.00;;
3307;SDS011;1666;48.898;9.182;2023-08-01T13:48:55;2.38;;;1.05;;
3307;SDS011;1666;48.898;9.182;2023-08-01T13:51:26;2.15;;;1.00;;
3307;SDS011;1666;48.898;9.182;2023-08-01T13:53:58;3.63;;;1.17;;
3307;SDS011;1666;48.898;9.182;2023-08-01T13:56:28;1.75;;;0.95;;
3307;SDS011;1666;48.898;9.182;2023-08-01T13:59:01;2.00;;;0.98;;
3307;SDS011;1666;48.898;9.182;2023-08-01T14:01:31;3.15;;;1.02;;
3307;SDS011;1666;48.898;9.182;2023-08-01T14:04:02;1.67;;;0.90;;
3307;SDS011;1666;48.898;9.182;2023-08-01T14:06:32;2.17;;;1.02;;
3307;SDS011;1666;48.898;9.182;2023-08-01T14:09:02;1.13;;;0.90;;
3307;SDS011;1666;48.898;9.182;2023-08-01T14:11:32;1.23;;;0.85;;
3307;SDS011;1666;48.898;9.182;2023-08-01T14:14:05;1.55;;;1.00;;
3307;SDS011;1666;48.898;9.182;2023-08-01T14:16:35;2.63;;;1.10;;
3307;SDS011;1666;48.898;9.182;2023-08-01T14:19:05;3.08;;;1.08;;
3307;SDS011;1666;48.898;9.182;2023-08-01T14:21:35;2.53;;;0.88;;
3307;SDS011;1666;48.898;9.182;2023-08-01T14:24:05;1.40;;;0.80;;
3307;SDS011;1666;48.898;9.182;2023-08-01T14:26:35;1.77;;;1.00;;
3307;SDS011;1666;48.898;9.182;2023-08-01T14:29:09;2.33;;;1.00;;
3307;SDS011;1666;48.898;9.182;2023-08-01T14:31:39;2.65;;;1.05;;
3307;SDS011;1666;48.898;9.182;2023-08-01T14:34:09;1.83;;;1.10;;
3307;SDS011;1666;48.898;9.182;2023-08-01T14:36:39;1.80;;;1.20;;
3307;SDS011;1666;48.898;9.182;2023-08-01T14:39:09;2.50;;;1.10;;
3307;SDS011;1666;48.898;9.182;2023-08-01T14:41:49;1.75;;;1.10;;
3307;SDS011;1666;48.898;9.182;2023-08-01T14:44:33;3.42;;;1.45;;
3307;SDS011;1666;48.898;9.182;2023-08-01T14:47:03;2.63;;;1.00;;
3307;SDS011;1666;48.898;9.182;2023-08-01T14:49:34;2.33;;;1.45;;
3307;SDS011;1666;48.898;9.182;2023-08-01T14:52:04;1.88;;;1.30;;
3307;SDS011;1666;48.898;9.182;2023-08-01T14:54:35;4.00;;;1.23;;
3307;SDS011;1666;48.898;9.182;2023-08-01T14:57:07;1.98;;;1.08;;
3307;SDS011;1666;48.898;9.182;2023-08-01T14:59:40;1.27;;;0.95;;
3307;SDS011;1666;48.898;9.182;2023-08-01T15:02:10;4.25;;;1.10;;
3307;SDS011;1666;48.898;9.182;2023-08-01T15:04:40;1.60;;;1.00;;
3307;SDS011;1666;48.898;9.182;2023-08-01T15:07:10;2.78;;;1.20;;
3307;SDS011;1666;48.898;9.182;2023-08-01T15:09:41;2.10;;;1.48;;
3307;SDS011;1666;48.898;9.182;2023-08-01T15:12:11;2.80;;;1.30;;
3307;SDS011;1666;48.898;9.182;2023-08-01T15:14:44;1.95;;;1.25;;
3307;SDS011;1666;48.898;9.182;2023-08-01T15:17:14;1.83;;;1.00;;
3307;SDS011;1666;48.898;9.182;2023-08-01T15:19:44;4.25;;;1.20;;
3307;SDS011;1666;48.898;9.182;2023-08-01T15:22:14;3.25;;;1.20;;
3307;SDS011;1666;48.898;9.182;2023-08-01T15:24:44;1.90;;;1.30;;
3307;SDS011;1666;48.898;9.182;2023-08-01T15:27:14;4.30;;;1.40;;
3307;SDS011;1666;48.898;9.182;2023-08-01T15:29:47;2.65;;;1.20;;
3307;SDS011;1666;48.898;9.182;2023-08-01T15:32:17;2.25;;;1.05;;
3307;SDS011;1666;48.898;9.182;2023-08-01T15:34:47;8.15;;;4.20;;
3307;SDS011;1666;48.898;9.182;2023-08-01T15:37:17;6.80;;;3.00;;
3307;SDS011;1666;48.898;9.182;2023-08-01T15:39:47;7.18;;;3.53;;
3307;SDS011;1666;48.898;9.182;2023-08-01T15:42:17;4.28;;;2.67;;